sensor_id;sensor_type;location;lat;lon;timestamp;P1;durP1;ratioP1;P2;durP2;ratioP2
28003;SDS011;15330;51.234;6.754;2022-12-18T00:01:25;28.92;;;12.80;;
28003;SDS011;15330;51.234;6.754;2022-12-18T00:03:51;25.92;;;11.77;;
28003;SDS011;15330;51.234;6.754;2022-12-18T00:06:17;25.10;;;11.65;;
28003;SDS011;15330;51.234;6.754;2022-12-18T00:08:43;22.55;;;11.40;;
28003;SDS011;15330;51.234;6.754;2022-12-18T00:11:16;23.63;;;12.32;;
28003;SDS011;15330;51.234;6.754;2022-12-18T00:13:43;27.15;;;11.75;;
28003;SDS011;15330;51.234;6.754;2022-12-18T00:16:09;24.77;;;12.32;;
28003;SDS011;15330;51.234;6.754;2022-12-18T00:18:37;23.65;;;11.52;;
28003;SDS011;15330;51.234;6.754;2022-12-18T00:21:04;25.70;;;11.13;;
28003;SDS011;15330;51.234;6.754;2022-12-18T00:23:30;27.65;;;12.05;;
28003;SDS011;15330;51.234;6.754;2022-12-18T00:26:00;25.35;;;11.30;;
28003;SDS011;15330;51.234;6.754;2022-12-18T00:28:27;23.45;;;11.52;;
28003;SDS011;15330;51.234;6.754;2022-12-18T00:31:26;23.27;;;11.45;;
28003;SDS011;15330;51.234;6.754;2022-12-18T00:33:46;21.75;;;9.77;;
28003;SDS011;15330;51.234;6.754;2022-12-18T00:38:39;25.70;;;12.23;;
28003;SDS011;15330;51.234;6.754;2022-12-18T00:41:04;27.75;;;12.48;;
28003;SDS011;15330;51.234;6.754;2022-12-18T00:43:30;25.38;;;11.25;;
28003;SDS011;15330;51.234;6.754;2022-12-18T00:45:58;26.90;;;12.43;;
28003;SDS011;15330;51.234;6.754;2022-12-18T00:48:24;27.30;;;12.73;;
28003;SDS011;15330;51.234;6.754;2022-12-18T00:50:49;23.30;;;10.38;;
28003;SDS011;15330;51.234;6.754;2022-12-18T00:53:15;24.42;;;11.95;;
28003;SDS011;15330;51.234;6.754;2022-12-18T00:55:41;26.67;;;11.48;;
28003;SDS011;15330;51.234;6.754;2022-12-18T00:58:08;28.42;;;11.90;;
28003;SDS011;15330;51.234;6.754;2022-12-18T01:00:35;24.70;;;12.52;;
28003;SDS011;15330;51.234;6.754;2022-12-18T01:03:01;24.63;;;11.65;;
28003;SDS011;15330;51.234;6.754;2022-12-18T01:05:26;29.52;;;12.52;;
28003;SDS011;15330;51.234;6.754;2022-12-18T01:07:52;23.95;;;11.35;;
28003;SDS011;15330;51.234;6.754;2022-12-18T01:10:17;25.67;;;12.05;;
28003;SDS011;15330;51.234;6.754;2022-12-18T01:12:43;23.88;;;11.25;;
28003;SDS011;15330;51.234;6.754;2022-12-18T01:15:09;25.75;;;10.70;;
28003;SDS011;15330;51.234;6.754;2022-12-18T01:17:36;25.70;;;11.10;;
28003;SDS011;15330;51.234;6.754;2022-12-18T01:20:02;27.83;;;11.48;;
28003;SDS011;15330;51.234;6.754;2022-12-18T01:22:28;25.83;;;11.68;;
28003;SDS011;15330;51.234;6.754;2022-12-18T01:24:53;23.88;;;11.25;;
28003;SDS011;15330;51.234;6.754;2022-12-18T01:27:19;26.60;;;12.02;;
28003;SDS011;15330;51.234;6.754;2022-12-18T01:29:44;26.65;;;12.15;;
28003;SDS011;15330;51.234;6.754;2022-12-18T01:32:09;27.40;;;11.90;;
28003;SDS011;15330;51.234;6.754;2022-12-18T01:34:35;24.98;;;11.50;;
28003;SDS011;15330;51.234;6.754;2022-12-18T01:37:02;22.83;;;11.40;;
28003;SDS011;15330;51.234;6.754;2022-12-18T01:39:29;25.05;;;11.82;;
28003;SDS011;15330;51.234;6.754;2022-12-18T01:41:54;21.98;;;10.95;;
28003;SDS011;15330;51.234;6.754;2022-12-18T01:49:52;25.30;;;12.93;;
28003;SDS011;15330;51.234;6.754;2022-12-18T01:52:19;24.70;;;11.68;;
28003;SDS011;15330;51.234;6.754;2022-12-18T01:54:45;22.20;;;10.38;;
28003;SDS011;15330;51.234;6.754;2022-12-18T01:57:12;21.60;;;10.15;;
28003;SDS011;15330;51.234;6.754;2022-12-18T01:59:37;25.55;;;12.23;;
28003;SDS011;15330;51.234;6.754;2022-12-18T02:02:05;24.45;;;11.43;;
28003;SDS011;15330;51.234;6.754;2022-12-18T02:04:32;24.05;;;12.38;;
28003;SDS011;15330;51.234;6.754;2022-12-18T02:07:09;21.67;;;11.25;;
28003;SDS011;15330;51.234;6.754;2022-12-18T02:09:50;26.65;;;12.18;;
28003;SDS011;15330;51.234;6.754;2022-12-18T02:12:19;29.42;;;12.15;;
28003;SDS011;15330;51.234;6.754;2022-12-18T02:15:02;27.63;;;12.10;;
28003;SDS011;15330;51.234;6.754;2022-12-18T02:17:43;27.48;;;13.07;;
28003;SDS011;15330;51.234;6.754;2022-12-18T02:20:21;27.15;;;12.07;;
28003;SDS011;15330;51.234;6.754;2022-12-18T02:28:33;28.92;;;12.20;;
28003;SDS011;15330;51.234;6.754;2022-12-18T02:31:04;27.38;;;12.52;;
28003;SDS011;15330;51.234;6.754;2022-12-18T02:33:34;28.23;;;13.35;;
28003;SDS011;15330;51.234;6.754;2022-12-18T02:36:01;26.88;;;13.13;;
28003;SDS011;15330;51.234;6.754;2022-12-18T02:38:28;29.08;;;13.73;;
28003;SDS011;15330;51.234;6.754;2022-12-18T02:40:55;26.65;;;11.27;;
28003;SDS011;15330;51.234;6.754;2022-12-18T02:43:21;25.33;;;12.57;;
28003;SDS011;15330;51.234;6.754;2022-12-18T02:45:57;23.75;;;11.82;;
28003;SDS011;15330;51.234;6.754;2022-12-18T02:48:26;28.15;;;13.05;;
28003;SDS011;15330;51.234;6.754;2022-12-18T02:51:14;23.15;;;11.25;;
28003;SDS011;15330;51.234;6.754;2022-12-18T02:53:50;25.25;;;12.63;;
28003;SDS011;15330;51.234;6.754;2022-12-18T02:56:25;22.33;;;11.30;;
28003;SDS011;15330;51.234;6.754;2022-12-18T03:02:02;23.83;;;11.35;;
28003;SDS011;15330;51.234;6.754;2022-12-18T03:04:30;22.60;;;11.43;;
28003;SDS011;15330;51.234;6.754;2022-12-18T03:07:03;24.08;;;11.00;;
28003;SDS011;15330;51.234;6.754;2022-12-18T03:09:34;20.55;;;11.18;;
28003;SDS011;15330;51.234;6.754;2022-12-18T03:12:12;20.98;;;10.77;;
28003;SDS011;15330;51.234;6.754;2022-12-18T03:14:53;21.05;;;9.95;;
28003;SDS011;15330;51.234;6.754;2022-12-18T03:17:20;27.42;;;10.98;;
28003;SDS011;15330;51.234;6.754;2022-12-18T03:19:50;24.88;;;12.05;;
28003;SDS011;15330;51.234;6.754;2022-12-18T03:22:18;25.88;;;11.27;;
28003;SDS011;15330;51.234;6.754;2022-12-18T03:24:45;24.75;;;11.43;;
28003;SDS011;15330;51.234;6.754;2022-12-18T03:27:13;21.65;;;10.73;;
28003;SDS011;15330;51.234;6.754;2022-12-18T03:29:51;21.50;;;10.20;;
28003;SDS011;15330;51.234;6.754;2022-12-18T03:32:32;19.85;;;10.05;;
28003;SDS011;15330;51.234;6.754;2022-12-18T03:35:04;22.65;;;10.68;;
28003;SDS011;15330;51.234;6.754;2022-12-18T03:37:31;20.23;;;9.07;;
28003;SDS011;15330;51.234;6.754;2022-12-18T03:39:57;22.45;;;10.70;;
28003;SDS011;15330;51.234;6.754;2022-12-18T03:50:49;23.50;;;10.45;;
28003;SDS011;15330;51.234;6.754;2022-12-18T03:56:26;23.45;;;10.57;;
28003;SDS011;15330;51.234;6.754;2022-12-18T03:58:56;20.80;;;9.43;;
28003;SDS011;15330;51.234;6.754;2022-12-18T04:01:34;20.67;;;9.90;;
28003;SDS011;15330;51.234;6.754;2022-12-18T04:04:04;19.85;;;9.43;;
28003;SDS011;15330;51.234;6.754;2022-12-18T04:06:32;18.25;;;8.98;;
28003;SDS011;15330;51.234;6.754;2022-12-18T04:08:57;19.20;;;9.98;;
28003;SDS011;15330;51.234;6.754;2022-12-18T04:11:23;23.42;;;10.73;;
28003;SDS011;15330;51.234;6.754;2022-12-18T04:13:49;19.70;;;9.00;;
28003;SDS011;15330;51.234;6.754;2022-12-18T04:16:14;18.80;;;9.60;;
28003;SDS011;15330;51.234;6.754;2022-12-18T04:18:39;24.67;;;10.45;;
28003;SDS011;15330;51.234;6.754;2022-12-18T04:21:05;21.10;;;10.38;;
28003;SDS011;15330;51.234;6.754;2022-12-18T04:23:30;19.10;;;9.00;;
28003;SDS011;15330;51.234;6.754;2022-12-18T04:25:55;19.70;;;9.07;;
28003;SDS011;15330;51.234;6.754;2022-12-18T04:28:21;20.63;;;10.07;;
28003;SDS011;15330;51.234;6.754;2022-12-18T04:30:46;22.17;;;9.43;;
28003;SDS011;15330;51.234;6.754;2022-12-18T04:33:12;19.60;;;9.70;;
28003;SDS011;15330;51.234;6.754;2022-12-18T04:35:38;17.77;;;9.38;;
28003;SDS011;15330;51.234;6.754;2022-12-18T04:38:05;18.48;;;9.77;;
28003;SDS011;15330;51.234;6.754;2022-12-18T04:40:33;21.33;;;9.43;;
28003;SDS011;15330;51.234;6.754;2022-12-18T04:42:58;20.05;;;10.27;;
28003;SDS011;15330;51.234;6.754;2022-12-18T04:45:24;20.95;;;10.35;;
28003;SDS011;15330;51.234;6.754;2022-12-18T04:47:49;20.35;;;10.23;;
28003;SDS011;15330;51.234;6.754;2022-12-18T04:50:14;15.90;;;7.93;;
28003;SDS011;15330;51.234;6.754;2022-12-18T04:52:40;18.63;;;9.77;;
28003;SDS011;15330;51.234;6.754;2022-12-18T04:55:05;18.70;;;9.77;;
28003;SDS011;15330;51.234;6.754;2022-12-18T04:57:31;23.25;;;9.75;;
28003;SDS011;15330;51.234;6.754;2022-12-18T04:59:56;19.90;;;9.18;;
28003;SDS011;15330;51.234;6.754;2022-12-18T05:02:22;23.67;;;9.90;;
28003;SDS011;15330;51.234;6.754;2022-12-18T05:04:47;21.33;;;10.10;;
28003;SDS011;15330;51.234;6.754;2022-12-18T05:07:12;21.00;;;10.50;;
28003;SDS011;15330;51.234;6.754;2022-12-18T05:09:38;22.42;;;9.73;;
28003;SDS011;15330;51.234;6.754;2022-12-18T05:12:03;20.35;;;9.68;;
28003;SDS011;15330;51.234;6.754;2022-12-18T05:14:28;22.80;;;10.30;;
28003;SDS011;15330;51.234;6.754;2022-12-18T05:16:54;19.40;;;9.75;;
28003;SDS011;15330;51.234;6.754;2022-12-18T05:19:20;21.83;;;10.30;;
28003;SDS011;15330;51.234;6.754;2022-12-18T05:21:45;20.58;;;10.20;;
28003;SDS011;15330;51.234;6.754;2022-12-18T05:24:11;17.40;;;8.80;;
28003;SDS011;15330;51.234;6.754;2022-12-18T05:26:36;15.70;;;6.93;;
28003;SDS011;15330;51.234;6.754;2022-12-18T05:29:02;23.50;;;9.55;;
28003;SDS011;15330;51.234;6.754;2022-12-18T05:31:27;18.27;;;8.40;;
28003;SDS011;15330;51.234;6.754;2022-12-18T05:33:52;17.50;;;8.95;;
28003;SDS011;15330;51.234;6.754;2022-12-18T05:36:19;21.10;;;9.35;;
28003;SDS011;15330;51.234;6.754;2022-12-18T05:38:44;17.95;;;8.95;;
28003;SDS011;15330;51.234;6.754;2022-12-18T05:41:09;18.88;;;9.45;;
28003;SDS011;15330;51.234;6.754;2022-12-18T05:43:35;19.25;;;8.77;;
28003;SDS011;15330;51.234;6.754;2022-12-18T05:46:06;17.13;;;8.98;;
28003;SDS011;15330;51.234;6.754;2022-12-18T05:48:33;21.05;;;9.40;;
28003;SDS011;15330;51.234;6.754;2022-12-18T05:51:04;17.27;;;8.85;;
28003;SDS011;15330;51.234;6.754;2022-12-18T05:53:31;20.88;;;9.75;;
28003;SDS011;15330;51.234;6.754;2022-12-18T05:55:59;21.05;;;9.65;;
28003;SDS011;15330;51.234;6.754;2022-12-18T05:58:28;25.25;;;9.73;;
28003;SDS011;15330;51.234;6.754;2022-12-18T06:00:54;21.63;;;9.63;;
28003;SDS011;15330;51.234;6.754;2022-12-18T06:03:20;18.38;;;9.45;;
28003;SDS011;15330;51.234;6.754;2022-12-18T06:05:45;22.80;;;10.13;;
28003;SDS011;15330;51.234;6.754;2022-12-18T06:08:11;20.88;;;10.32;;
28003;SDS011;15330;51.234;6.754;2022-12-18T06:10:38;16.58;;;9.52;;
28003;SDS011;15330;51.234;6.754;2022-12-18T06:13:04;21.70;;;10.73;;
28003;SDS011;15330;51.234;6.754;2022-12-18T06:15:30;15.73;;;7.53;;
28003;SDS011;15330;51.234;6.754;2022-12-18T06:17:55;21.30;;;10.15;;
28003;SDS011;15330;51.234;6.754;2022-12-18T06:20:21;23.33;;;10.43;;
28003;SDS011;15330;51.234;6.754;2022-12-18T06:22:47;21.33;;;9.75;;
28003;SDS011;15330;51.234;6.754;2022-12-18T06:25:12;20.50;;;9.35;;
28003;SDS011;15330;51.234;6.754;2022-12-18T06:27:38;23.85;;;9.75;;
28003;SDS011;15330;51.234;6.754;2022-12-18T06:30:04;21.75;;;10.13;;
28003;SDS011;15330;51.234;6.754;2022-12-18T06:32:30;18.30;;;9.68;;
28003;SDS011;15330;51.234;6.754;2022-12-18T06:34:55;19.15;;;10.02;;
28003;SDS011;15330;51.234;6.754;2022-12-18T06:37:21;22.05;;;9.88;;
28003;SDS011;15330;51.234;6.754;2022-12-18T06:39:49;24.25;;;11.30;;
28003;SDS011;15330;51.234;6.754;2022-12-18T06:42:14;18.17;;;9.15;;
28003;SDS011;15330;51.234;6.754;2022-12-18T06:44:39;21.98;;;10.40;;
28003;SDS011;15330;51.234;6.754;2022-12-18T06:47:05;22.88;;;9.55;;
28003;SDS011;15330;51.234;6.754;2022-12-18T06:49:30;21.45;;;10.23;;
28003;SDS011;15330;51.234;6.754;2022-12-18T06:51:55;21.08;;;10.57;;
28003;SDS011;15330;51.234;6.754;2022-12-18T06:54:21;20.00;;;9.80;;
28003;SDS011;15330;51.234;6.754;2022-12-18T06:56:46;23.80;;;9.82;;
28003;SDS011;15330;51.234;6.754;2022-12-18T06:59:12;22.55;;;9.90;;
28003;SDS011;15330;51.234;6.754;2022-12-18T07:01:38;20.60;;;9.18;;
28003;SDS011;15330;51.234;6.754;2022-12-18T07:04:03;18.08;;;8.57;;
28003;SDS011;15330;51.234;6.754;2022-12-18T07:06:29;19.13;;;9.20;;
28003;SDS011;15330;51.234;6.754;2022-12-18T07:08:54;20.20;;;9.90;;
28003;SDS011;15330;51.234;6.754;2022-12-18T07:11:20;21.23;;;9.50;;
28003;SDS011;15330;51.234;6.754;2022-12-18T07:13:45;21.50;;;9.82;;
28003;SDS011;15330;51.234;6.754;2022-12-18T07:16:12;20.92;;;9.70;;
28003;SDS011;15330;51.234;6.754;2022-12-18T07:18:39;15.32;;;8.60;;
28003;SDS011;15330;51.234;6.754;2022-12-18T07:21:05;17.17;;;7.88;;
28003;SDS011;15330;51.234;6.754;2022-12-18T07:23:32;20.67;;;9.23;;
28003;SDS011;15330;51.234;6.754;2022-12-18T07:26:08;22.08;;;10.65;;
28003;SDS011;15330;51.234;6.754;2022-12-18T07:28:36;25.98;;;9.77;;
28003;SDS011;15330;51.234;6.754;2022-12-18T07:31:03;19.98;;;9.57;;
28003;SDS011;15330;51.234;6.754;2022-12-18T07:33:30;19.73;;;10.55;;
28003;SDS011;15330;51.234;6.754;2022-12-18T07:35:58;21.33;;;9.40;;
28003;SDS011;15330;51.234;6.754;2022-12-18T07:38:24;29.85;;;9.80;;
28003;SDS011;15330;51.234;6.754;2022-12-18T07:40:49;21.77;;;10.13;;
28003;SDS011;15330;51.234;6.754;2022-12-18T07:43:14;20.83;;;11.02;;
28003;SDS011;15330;51.234;6.754;2022-12-18T07:45:39;22.85;;;10.27;;
28003;SDS011;15330;51.234;6.754;2022-12-18T07:48:05;21.05;;;10.77;;
28003;SDS011;15330;51.234;6.754;2022-12-18T07:50:30;17.85;;;8.48;;
28003;SDS011;15330;51.234;6.754;2022-12-18T07:52:55;20.05;;;9.93;;
28003;SDS011;15330;51.234;6.754;2022-12-18T07:55:21;22.52;;;10.57;;
28003;SDS011;15330;51.234;6.754;2022-12-18T07:57:46;19.73;;;9.25;;
28003;SDS011;15330;51.234;6.754;2022-12-18T08:00:12;20.05;;;9.90;;
28003;SDS011;15330;51.234;6.754;2022-12-18T08:02:38;21.45;;;10.80;;
28003;SDS011;15330;51.234;6.754;2022-12-18T08:05:03;19.58;;;9.15;;
28003;SDS011;15330;51.234;6.754;2022-12-18T08:07:29;24.52;;;10.32;;
28003;SDS011;15330;51.234;6.754;2022-12-18T08:09:54;24.25;;;11.75;;
28003;SDS011;15330;51.234;6.754;2022-12-18T08:12:19;23.60;;;9.43;;
28003;SDS011;15330;51.234;6.754;2022-12-18T08:14:45;22.48;;;10.38;;
28003;SDS011;15330;51.234;6.754;2022-12-18T08:17:10;27.02;;;10.40;;
28003;SDS011;15330;51.234;6.754;2022-12-18T08:19:35;21.92;;;10.25;;
28003;SDS011;15330;51.234;6.754;2022-12-18T08:22:01;28.80;;;10.55;;
28003;SDS011;15330;51.234;6.754;2022-12-18T08:24:26;20.73;;;9.70;;
28003;SDS011;15330;51.234;6.754;2022-12-18T08:26:51;27.02;;;9.98;;
28003;SDS011;15330;51.234;6.754;2022-12-18T08:29:17;17.13;;;9.45;;
28003;SDS011;15330;51.234;6.754;2022-12-18T08:31:42;20.75;;;9.82;;
28003;SDS011;15330;51.234;6.754;2022-12-18T08:34:08;17.38;;;8.48;;
28003;SDS011;15330;51.234;6.754;2022-12-18T08:36:33;20.85;;;10.27;;
28003;SDS011;15330;51.234;6.754;2022-12-18T08:39:00;19.85;;;9.40;;
28003;SDS011;15330;51.234;6.754;2022-12-18T08:41:25;20.00;;;10.27;;
28003;SDS011;15330;51.234;6.754;2022-12-18T08:43:50;24.02;;;10.50;;
28003;SDS011;15330;51.234;6.754;2022-12-18T08:46:36;18.08;;;9.73;;
28003;SDS011;15330;51.234;6.754;2022-12-18T08:49:03;28.27;;;11.68;;
28003;SDS011;15330;51.234;6.754;2022-12-18T08:51:29;20.88;;;10.10;;
28003;SDS011;15330;51.234;6.754;2022-12-18T08:53:55;24.13;;;10.48;;
28003;SDS011;15330;51.234;6.754;2022-12-18T08:56:20;19.90;;;11.02;;
28003;SDS011;15330;51.234;6.754;2022-12-18T08:58:45;19.15;;;9.38;;
28003;SDS011;15330;51.234;6.754;2022-12-18T09:01:12;19.67;;;9.88;;
28003;SDS011;15330;51.234;6.754;2022-12-18T09:03:38;20.80;;;10.20;;
28003;SDS011;15330;51.234;6.754;2022-12-18T09:06:04;20.00;;;10.85;;
28003;SDS011;15330;51.234;6.754;2022-12-18T09:08:30;24.63;;;11.73;;
28003;SDS011;15330;51.234;6.754;2022-12-18T09:10:56;19.98;;;10.98;;
28003;SDS011;15330;51.234;6.754;2022-12-18T09:13:21;22.42;;;11.77;;
28003;SDS011;15330;51.234;6.754;2022-12-18T09:15:48;21.70;;;10.48;;
28003;SDS011;15330;51.234;6.754;2022-12-18T09:18:15;24.52;;;11.50;;
28003;SDS011;15330;51.234;6.754;2022-12-18T09:20:42;23.15;;;10.95;;
28003;SDS011;15330;51.234;6.754;2022-12-18T09:23:08;25.48;;;11.27;;
28003;SDS011;15330;51.234;6.754;2022-12-18T09:25:34;23.13;;;11.23;;
28003;SDS011;15330;51.234;6.754;2022-12-18T09:28:04;21.88;;;11.40;;
28003;SDS011;15330;51.234;6.754;2022-12-18T09:30:30;23.15;;;11.50;;
28003;SDS011;15330;51.234;6.754;2022-12-18T09:32:58;24.60;;;10.95;;
28003;SDS011;15330;51.234;6.754;2022-12-18T09:35:23;23.10;;;11.80;;
28003;SDS011;15330;51.234;6.754;2022-12-18T09:37:49;16.67;;;10.30;;
28003;SDS011;15330;51.234;6.754;2022-12-18T09:40:14;21.42;;;12.77;;
28003;SDS011;15330;51.234;6.754;2022-12-18T09:42:44;21.95;;;13.43;;
28003;SDS011;15330;51.234;6.754;2022-12-18T09:45:17;23.45;;;12.70;;
28003;SDS011;15330;51.234;6.754;2022-12-18T09:47:43;20.52;;;12.15;;
28003;SDS011;15330;51.234;6.754;2022-12-18T09:52:47;19.60;;;10.55;;
28003;SDS011;15330;51.234;6.754;2022-12-18T09:55:24;19.83;;;9.68;;
28003;SDS011;15330;51.234;6.754;2022-12-18T09:57:52;20.65;;;10.30;;
28003;SDS011;15330;51.234;6.754;2022-12-18T10:00:22;19.38;;;9.30;;
28003;SDS011;15330;51.234;6.754;2022-12-18T10:02:50;22.42;;;10.52;;
28003;SDS011;15330;51.234;6.754;2022-12-18T10:05:27;21.50;;;10.82;;
28003;SDS011;15330;51.234;6.754;2022-12-18T10:08:01;24.52;;;10.73;;
28003;SDS011;15330;51.234;6.754;2022-12-18T10:10:36;18.15;;;10.20;;
28003;SDS011;15330;51.234;6.754;2022-12-18T10:13:09;20.33;;;10.88;;
28003;SDS011;15330;51.234;6.754;2022-12-18T10:27:25;21.42;;;12.65;;
28003;SDS011;15330;51.234;6.754;2022-12-18T10:29:51;22.92;;;10.18;;
28003;SDS011;15330;51.234;6.754;2022-12-18T10:32:19;21.13;;;9.65;;
28003;SDS011;15330;51.234;6.754;2022-12-18T10:34:50;17.27;;;9.38;;
28003;SDS011;15330;51.234;6.754;2022-12-18T10:37:18;19.58;;;9.02;;
28003;SDS011;15330;51.234;6.754;2022-12-18T10:39:46;24.52;;;10.85;;
28003;SDS011;15330;51.234;6.754;2022-12-18T10:42:29;23.50;;;11.63;;
28003;SDS011;15330;51.234;6.754;2022-12-18T10:45:02;18.90;;;10.05;;
28003;SDS011;15330;51.234;6.754;2022-12-18T10:47:33;24.25;;;11.15;;
28003;SDS011;15330;51.234;6.754;2022-12-18T10:49:59;22.33;;;10.95;;
28003;SDS011;15330;51.234;6.754;2022-12-18T10:52:25;17.95;;;9.68;;
28003;SDS011;15330;51.234;6.754;2022-12-18T10:59:52;18.55;;;9.77;;
28003;SDS011;15330;51.234;6.754;2022-12-18T11:02:36;20.73;;;11.15;;
28003;SDS011;15330;51.234;6.754;2022-12-18T11:05:04;21.15;;;10.70;;
28003;SDS011;15330;51.234;6.754;2022-12-18T11:07:49;23.80;;;11.18;;
28003;SDS011;15330;51.234;6.754;2022-12-18T11:10:19;24.10;;;11.98;;
28003;SDS011;15330;51.234;6.754;2022-12-18T11:12:46;21.40;;;10.15;;
28003;SDS011;15330;51.234;6.754;2022-12-18T11:15:15;18.55;;;9.60;;
28003;SDS011;15330;51.234;6.754;2022-12-18T11:17:50;24.98;;;10.93;;
28003;SDS011;15330;51.234;6.754;2022-12-18T11:20:28;23.75;;;11.20;;
28003;SDS011;15330;51.234;6.754;2022-12-18T11:23:04;21.60;;;11.50;;
28003;SDS011;15330;51.234;6.754;2022-12-18T11:25:35;23.20;;;11.15;;
28003;SDS011;15330;51.234;6.754;2022-12-18T11:28:05;26.48;;;11.80;;
28003;SDS011;15330;51.234;6.754;2022-12-18T11:30:50;29.08;;;11.70;;
28003;SDS011;15330;51.234;6.754;2022-12-18T11:36:36;28.27;;;12.23;;
28003;SDS011;15330;51.234;6.754;2022-12-18T11:39:17;24.25;;;11.95;;
28003;SDS011;15330;51.234;6.754;2022-12-18T11:41:48;24.52;;;11.90;;
28003;SDS011;15330;51.234;6.754;2022-12-18T11:44:36;27.13;;;14.52;;
28003;SDS011;15330;51.234;6.754;2022-12-18T11:47:04;24.77;;;12.23;;
28003;SDS011;15330;51.234;6.754;2022-12-18T11:49:38;26.45;;;13.20;;
28003;SDS011;15330;51.234;6.754;2022-12-18T11:52:25;24.63;;;12.15;;
28003;SDS011;15330;51.234;6.754;2022-12-18T11:54:57;25.40;;;12.82;;
28003;SDS011;15330;51.234;6.754;2022-12-18T11:58:08;26.83;;;13.13;;
28003;SDS011;15330;51.234;6.754;2022-12-18T12:00:20;24.60;;;12.95;;
28003;SDS011;15330;51.234;6.754;2022-12-18T12:08:15;20.33;;;10.57;;
28003;SDS011;15330;51.234;6.754;2022-12-18T12:11:07;27.80;;;13.23;;
28003;SDS011;15330;51.234;6.754;2022-12-18T12:16:51;26.33;;;11.63;;
28003;SDS011;15330;51.234;6.754;2022-12-18T12:23:02;24.52;;;12.77;;
28003;SDS011;15330;51.234;6.754;2022-12-18T12:25:52;24.08;;;9.98;;
28003;SDS011;15330;51.234;6.754;2022-12-18T12:28:42;29.67;;;13.93;;
28003;SDS011;15330;51.234;6.754;2022-12-18T12:34:18;32.45;;;14.25;;
28003;SDS011;15330;51.234;6.754;2022-12-18T12:39:30;31.77;;;16.40;;
28003;SDS011;15330;51.234;6.754;2022-12-18T12:42:00;29.27;;;13.60;;
28003;SDS011;15330;51.234;6.754;2022-12-18T12:44:48;26.70;;;11.38;;
28003;SDS011;15330;51.234;6.754;2022-12-18T12:47:26;36.17;;;15.15;;
28003;SDS011;15330;51.234;6.754;2022-12-18T12:49:58;29.60;;;13.82;;
28003;SDS011;15330;51.234;6.754;2022-12-18T12:52:40;26.95;;;13.10;;
28003;SDS011;15330;51.234;6.754;2022-12-18T12:55:18;28.80;;;15.30;;
28003;SDS011;15330;51.234;6.754;2022-12-18T13:00:56;27.52;;;13.15;;
28003;SDS011;15330;51.234;6.754;2022-12-18T13:09:09;30.35;;;14.68;;
28003;SDS011;15330;51.234;6.754;2022-12-18T13:14:31;33.80;;;15.55;;
28003;SDS011;15330;51.234;6.754;2022-12-18T13:19:39;29.80;;;14.50;;
28003;SDS011;15330;51.234;6.754;2022-12-18T13:22:12;33.90;;;16.10;;
28003;SDS011;15330;51.234;6.754;2022-12-18T13:24:47;40.00;;;17.33;;
28003;SDS011;15330;51.234;6.754;2022-12-18T13:35:51;36.40;;;17.48;;
28003;SDS011;15330;51.234;6.754;2022-12-18T13:51:13;36.85;;;17.67;;
28003;SDS011;15330;51.234;6.754;2022-12-18T13:53:43;29.73;;;15.65;;
28003;SDS011;15330;51.234;6.754;2022-12-18T13:59:13;36.80;;;17.20;;
28003;SDS011;15330;51.234;6.754;2022-12-18T14:01:43;32.35;;;13.77;;
28003;SDS011;15330;51.234;6.754;2022-12-18T14:04:10;38.20;;;17.20;;
28003;SDS011;15330;51.234;6.754;2022-12-18T14:06:43;34.40;;;16.63;;
28003;SDS011;15330;51.234;6.754;2022-12-18T14:09:13;34.92;;;15.95;;
28003;SDS011;15330;51.234;6.754;2022-12-18T14:11:40;38.47;;;17.20;;
28003;SDS011;15330;51.234;6.754;2022-12-18T14:14:13;33.55;;;17.30;;
28003;SDS011;15330;51.234;6.754;2022-12-18T14:16:40;37.58;;;19.00;;
28003;SDS011;15330;51.234;6.754;2022-12-18T14:19:08;30.73;;;15.40;;
28003;SDS011;15330;51.234;6.754;2022-12-18T14:21:45;38.72;;;17.73;;
28003;SDS011;15330;51.234;6.754;2022-12-18T14:26:40;37.20;;;17.42;;
28003;SDS011;15330;51.234;6.754;2022-12-18T14:29:20;43.50;;;19.27;;
28003;SDS011;15330;51.234;6.754;2022-12-18T14:34:50;35.72;;;16.67;;
28003;SDS011;15330;51.234;6.754;2022-12-18T14:37:20;44.08;;;18.52;;
28003;SDS011;15330;51.234;6.754;2022-12-18T14:39:57;43.30;;;18.40;;
28003;SDS011;15330;51.234;6.754;2022-12-18T14:42:27;28.27;;;15.60;;
28003;SDS011;15330;51.234;6.754;2022-12-18T14:47:56;39.05;;;19.10;;
28003;SDS011;15330;51.234;6.754;2022-12-18T14:50:21;38.45;;;18.38;;
28003;SDS011;15330;51.234;6.754;2022-12-18T14:52:47;36.67;;;15.85;;
28003;SDS011;15330;51.234;6.754;2022-12-18T14:55:18;40.33;;;17.48;;
28003;SDS011;15330;51.234;6.754;2022-12-18T14:57:48;33.58;;;14.88;;
28003;SDS011;15330;51.234;6.754;2022-12-18T15:00:17;42.25;;;19.42;;
28003;SDS011;15330;51.234;6.754;2022-12-18T15:02:46;34.47;;;14.45;;
28003;SDS011;15330;51.234;6.754;2022-12-18T15:05:18;36.03;;;15.45;;
28003;SDS011;15330;51.234;6.754;2022-12-18T15:07:49;33.47;;;15.63;;
28003;SDS011;15330;51.234;6.754;2022-12-18T15:10:17;24.08;;;13.02;;
28003;SDS011;15330;51.234;6.754;2022-12-18T15:12:48;41.35;;;19.70;;
28003;SDS011;15330;51.234;6.754;2022-12-18T15:20:31;43.50;;;20.20;;
28003;SDS011;15330;51.234;6.754;2022-12-18T15:23:03;35.47;;;17.00;;
28003;SDS011;15330;51.234;6.754;2022-12-18T15:27:59;38.80;;;16.15;;
28003;SDS011;15330;51.234;6.754;2022-12-18T15:30:25;40.75;;;18.63;;
28003;SDS011;15330;51.234;6.754;2022-12-18T15:32:51;40.45;;;21.02;;
28003;SDS011;15330;51.234;6.754;2022-12-18T15:35:36;42.95;;;20.20;;
28003;SDS011;15330;51.234;6.754;2022-12-18T15:38:01;33.78;;;15.35;;
28003;SDS011;15330;51.234;6.754;2022-12-18T15:40:27;41.38;;;18.55;;
28003;SDS011;15330;51.234;6.754;2022-12-18T15:42:53;44.40;;;19.02;;
28003;SDS011;15330;51.234;6.754;2022-12-18T15:45:38;48.85;;;19.98;;
28003;SDS011;15330;51.234;6.754;2022-12-18T15:48:10;43.13;;;17.35;;
28003;SDS011;15330;51.234;6.754;2022-12-18T15:50:44;44.13;;;19.10;;
28003;SDS011;15330;51.234;6.754;2022-12-18T15:53:09;42.10;;;19.75;;
28003;SDS011;15330;51.234;6.754;2022-12-18T15:55:35;40.28;;;18.52;;
28003;SDS011;15330;51.234;6.754;2022-12-18T16:00:45;42.58;;;18.98;;
28003;SDS011;15330;51.234;6.754;2022-12-18T16:03:11;40.72;;;20.33;;
28003;SDS011;15330;51.234;6.754;2022-12-18T16:05:36;47.17;;;21.35;;
28003;SDS011;15330;51.234;6.754;2022-12-18T16:08:01;41.88;;;20.63;;
28003;SDS011;15330;51.234;6.754;2022-12-18T16:10:27;45.53;;;21.05;;
28003;SDS011;15330;51.234;6.754;2022-12-18T16:12:52;30.70;;;15.10;;
28003;SDS011;15330;51.234;6.754;2022-12-18T16:15:18;45.08;;;21.58;;
28003;SDS011;15330;51.234;6.754;2022-12-18T16:17:44;42.72;;;21.00;;
28003;SDS011;15330;51.234;6.754;2022-12-18T16:20:14;49.80;;;22.52;;
28003;SDS011;15330;51.234;6.754;2022-12-18T16:22:41;46.33;;;21.98;;
28003;SDS011;15330;51.234;6.754;2022-12-18T16:27:49;46.60;;;19.42;;
28003;SDS011;15330;51.234;6.754;2022-12-18T16:30:15;38.67;;;18.98;;
28003;SDS011;15330;51.234;6.754;2022-12-18T16:32:44;42.72;;;17.95;;
28003;SDS011;15330;51.234;6.754;2022-12-18T16:35:10;44.70;;;21.98;;
28003;SDS011;15330;51.234;6.754;2022-12-18T16:37:37;51.88;;;23.08;;
28003;SDS011;15330;51.234;6.754;2022-12-18T16:40:03;41.28;;;19.70;;
28003;SDS011;15330;51.234;6.754;2022-12-18T16:42:28;51.70;;;23.35;;
28003;SDS011;15330;51.234;6.754;2022-12-18T16:44:54;55.55;;;21.77;;